CheckWX is a tool to help pilots better visualize weather data.  It is not intended as a substitute for an official pre-flight weather briefing.

17:09:41 UTC

KIZA METAR
Santa Ynez Airport
Santa Ynez, California, USA
Current

35 mins ago

KIZA 211635Z AUTO 24003KT 10SM 16/12 A2996 RMK AO2
Observed
Jul-21 @ 16:35 UTC
Wind
  • 240° at 3 KTS
Visibility
10 SM
Temperature
16°C / 61°F
Dewpoint
12°C / 54°F
Humidity
77%
Altimeter
29.96" Hg
Pressure
1014.52 hPa
Previous

55 mins ago

KIZA 211615Z AUTO 00000KT 10SM 15/12 A2996 RMK AO2
Observed
Jul-21 @ 16:15 UTC
Visibility
10 SM
Temperature
15°C / 59°F
Dewpoint
12°C / 54°F
Humidity
82%
Altimeter
29.96" Hg
Pressure
1014.52 hPa
Previous

1 hour ago

KIZA 211555Z AUTO 00000KT 10SM 14/12 A2996 RMK AO2
Observed
Jul-21 @ 15:55 UTC
Visibility
10 SM
Temperature
14°C / 57°F
Dewpoint
12°C / 54°F
Humidity
88%
Altimeter
29.96" Hg
Pressure
1014.52 hPa